Time;durP1;ratioP1;P1;durP2;ratioP2;P2;SDS_P1;SDS_P2;PMS_P1;PMS_P2;Temp;Humidity;BMP_temperature;BMP_pressure;BME280_temperature;BME280_humidity;BME280_pressure;Samples;Min_cycle;Max_cycle;Signal;HPM_P1;HPM_P2
2022/05/13 00:00:38;;;;;;;1.03;1.03;;;22.20;67.70;;;;;;5047612;28;43432;-71
2022/05/13 00:03:08;;;;;;;1.40;1.40;;;22.10;67.10;;;;;;5046978;28;43691;-70
2022/05/13 00:05:36;;;;;;;1.10;1.10;;;22.00;67.20;;;;;;5047291;28;43889;-71
2022/05/13 00:08:04;;;;;;;1.40;1.40;;;22.00;67.40;;;;;;5029163;28;43882;-71
2022/05/13 00:10:32;;;;;;;1.27;1.27;;;21.90;69.90;;;;;;5047517;28;43879;-70
2022/05/13 00:13:00;;;;;;;1.40;1.40;;;22.00;69.90;;;;;;5046934;28;43973;-71
2022/05/13 00:15:30;;;;;;;1.20;1.20;;;22.10;69.70;;;;;;5047126;28;44028;-71
2022/05/13 00:17:57;;;;;;;1.30;1.30;;;22.10;68.80;;;;;;5047077;28;43385;-71
2022/05/13 00:20:27;;;;;;;1.20;1.20;;;22.10;69.20;;;;;;5029453;28;43959;-71
2022/05/13 00:22:57;;;;;;;1.30;1.30;;;22.00;68.30;;;;;;5047052;28;44797;-71
2022/05/13 00:25:26;;;;;;;1.20;1.20;;;22.00;67.40;;;;;;5047205;28;43963;-72
2022/05/13 00:27:56;;;;;;;1.30;1.30;;;22.00;67.50;;;;;;5047247;28;43364;-72
2022/05/13 00:30:24;;;;;;;1.20;1.20;;;21.90;67.50;;;;;;5047238;28;43478;-70
2022/05/13 00:32:52;;;;;;;1.20;1.20;;;21.80;67.60;;;;;;5046526;28;43905;-72
2022/05/13 00:35:20;;;;;;;1.13;1.13;;;21.80;67.80;;;;;;5046466;28;44016;-71
2022/05/13 00:37:49;;;;;;;1.13;1.13;;;21.80;68.00;;;;;;5046818;28;43938;-72
2022/05/13 00:40:19;;;;;;;1.43;1.43;;;21.80;70.10;;;;;;5040257;28;43997;-71
2022/05/13 00:42:47;;;;;;;1.20;1.20;;;21.80;70.10;;;;;;5040089;28;43989;-71
2022/05/13 00:45:16;;;;;;;1.10;1.10;;;22.00;69.50;;;;;;5040429;28;43952;-71
2022/05/13 00:47:44;;;;;;;1.27;1.27;;;22.00;69.40;;;;;;5046811;28;43408;-71
2022/05/13 00:50:14;;;;;;;1.20;1.20;;;22.00;68.30;;;;;;5045763;28;43897;-71
2022/05/13 00:52:43;;;;;;;1.30;1.30;;;22.00;67.70;;;;;;5028106;28;47147;-71
2022/05/13 00:55:15;;;;;;;1.07;1.07;;;21.90;67.60;;;;;;5046483;28;44152;-70
2022/05/13 00:57:43;;;;;;;1.10;1.10;;;21.90;67.70;;;;;;5046666;28;44033;-71
2022/05/13 01:00:13;;;;;;;1.00;1.00;;;21.80;67.70;;;;;;5045212;28;43965;-71
2022/05/13 01:02:43;;;;;;;1.07;1.07;;;21.80;67.90;;;;;;5044715;28;45588;-70
2022/05/13 01:05:11;;;;;;;1.37;1.37;;;21.80;67.90;;;;;;5046140;28;44188;-72
2022/05/13 01:07:39;;;;;;;1.40;1.40;;;21.70;68.60;;;;;;5046323;28;43948;-71
2022/05/13 01:10:10;;;;;;;1.00;1.00;;;21.70;70.00;;;;;;5045362;28;43943;-71
2022/05/13 01:12:42;;;;;;;1.10;1.10;;;21.90;70.10;;;;;;5046371;28;43936;-71
2022/05/13 01:15:11;;;;;;;1.20;1.20;;;22.00;70.00;;;;;;5046082;28;44001;-71
2022/05/13 01:20:26;;;;;;;1.30;1.30;;;22.30;68.30;;;;;;5047069;28;43830;-71
2022/05/13 01:22:58;;;;;;;1.20;1.20;;;22.30;68.60;;;;;;5044668;28;46639;-71
2022/05/13 01:25:27;;;;;;;1.20;1.20;;;22.20;68.40;;;;;;5044817;28;44793;-72
2022/05/13 01:27:56;;;;;;;1.17;1.17;;;22.10;67.60;;;;;;5046259;28;44008;-72
2022/05/13 01:30:25;;;;;;;1.50;1.50;;;22.00;67.10;;;;;;5046997;28;43957;-71
2022/05/13 01:32:53;;;;;;;1.10;1.10;;;22.00;67.30;;;;;;5046373;28;43972;-71
2022/05/13 01:35:21;;;;;;;1.10;1.10;;;21.90;67.30;;;;;;5039137;28;44059;-70
2022/05/13 01:37:49;;;;;;;1.40;1.40;;;21.90;68.40;;;;;;5046127;28;43900;-70
2022/05/13 01:40:18;;;;;;;1.10;1.10;;;21.90;70.00;;;;;;5021883;28;44292;-71
2022/05/13 01:42:46;;;;;;;1.30;1.30;;;22.00;70.10;;;;;;5038881;28;43877;-71
2022/05/13 01:45:15;;;;;;;1.27;1.27;;;22.10;68.90;;;;;;5037585;28;44405;-71
2022/05/13 01:47:43;;;;;;;1.23;1.23;;;22.10;69.10;;;;;;5039600;28;43950;-71
2022/05/13 01:50:12;;;;;;;1.10;1.10;;;22.10;68.20;;;;;;5046218;28;43893;-71
2022/05/13 01:52:40;;;;;;;1.13;1.13;;;22.00;67.60;;;;;;5039774;28;43975;-71
2022/05/13 01:55:09;;;;;;;1.50;1.50;;;21.90;67.40;;;;;;5043684;28;44564;-71
2022/05/13 01:57:38;;;;;;;1.30;1.30;;;21.90;67.50;;;;;;5046205;28;43910;-71
2022/05/13 02:00:07;;;;;;;1.20;1.20;;;21.80;67.60;;;;;;5046261;28;43917;-71
2022/05/13 02:05:21;;;;;;;1.20;1.20;;;21.70;67.80;;;;;;5048237;28;44095;-71
2022/05/13 02:07:48;;;;;;;1.03;1.03;;;21.70;69.80;;;;;;5030903;28;43445;-70
2022/05/13 02:10:16;;;;;;;1.27;1.27;;;21.70;70.00;;;;;;5049307;28;43583;-70
2022/05/13 02:12:46;;;;;;;1.30;1.30;;;21.90;70.00;;;;;;5048874;28;45103;-70
2022/05/13 02:15:14;;;;;;;1.20;1.20;;;22.10;69.80;;;;;;5030557;28;45085;-71
2022/05/13 02:17:41;;;;;;;1.17;1.17;;;22.20;68.90;;;;;;5030776;28;43998;-71
2022/05/13 02:20:10;;;;;;;1.30;1.30;;;22.30;68.30;;;;;;5049362;28;43435;-71
2022/05/13 02:22:39;;;;;;;1.07;1.07;;;22.30;68.20;;;;;;5048912;28;43961;-71
2022/05/13 02:25:09;;;;;;;1.37;1.37;;;22.20;68.30;;;;;;5048599;28;43902;-72
2022/05/13 02:27:37;;;;;;;1.27;1.27;;;22.10;67.50;;;;;;5048783;28;43843;-72
2022/05/13 02:30:08;;;;;;;1.23;1.23;;;22.10;67.10;;;;;;5049136;28;44012;-72
2022/05/13 02:32:36;;;;;;;1.20;1.20;;;22.00;67.20;;;;;;5048576;28;44047;-71
2022/05/13 02:35:05;;;;;;;1.20;1.20;;;21.90;67.40;;;;;;5048340;28;43949;-71
2022/05/13 02:37:33;;;;;;;1.30;1.30;;;21.90;69.10;;;;;;5048819;28;43908;-71
2022/05/13 02:40:01;;;;;;;1.23;1.23;;;21.80;69.90;;;;;;5048861;28;44040;-70
2022/05/13 02:42:29;;;;;;;1.30;1.30;;;22.00;69.70;;;;;;5048127;28;44028;-72
2022/05/13 02:44:57;;;;;;;1.20;1.20;;;22.10;68.80;;;;;;5048763;28;43920;-71
2022/05/13 02:47:26;;;;;;;1.13;1.13;;;22.10;68.90;;;;;;5048728;28;43961;-71
2022/05/13 02:52:36;;;;;;;1.10;1.10;;;22.00;67.40;;;;;;5047466;28;44770;-72
2022/05/13 02:55:05;;;;;;;1.20;1.20;;;21.90;67.50;;;;;;5046032;28;44752;-71
2022/05/13 02:57:34;;;;;;;1.30;1.30;;;21.80;67.50;;;;;;5041919;28;43358;-71
2022/05/13 03:00:03;;;;;;;1.30;1.30;;;21.80;67.70;;;;;;5040796;28;43521;-71
2022/05/13 03:02:33;;;;;;;1.20;1.20;;;21.70;67.80;;;;;;5036837;28;46531;-71
2022/05/13 03:05:01;;;;;;;1.10;1.10;;;21.70;67.90;;;;;;5042002;28;43929;-71
2022/05/13 03:07:29;;;;;;;1.23;1.23;;;21.70;69.60;;;;;;5048486;28;43872;-71
2022/05/13 03:09:57;;;;;;;1.10;1.10;;;21.70;70.00;;;;;;5048789;28;43775;-72
2022/05/13 03:12:24;;;;;;;1.10;1.10;;;21.90;69.90;;;;;;5029141;28;46071;-71
2022/05/13 03:14:52;;;;;;;1.30;1.30;;;22.00;69.60;;;;;;5048060;28;43432;-70
2022/05/13 03:17:20;;;;;;;1.20;1.20;;;22.20;68.40;;;;;;5047701;28;43906;-72
2022/05/13 03:19:50;;;;;;;1.20;1.20;;;22.20;68.30;;;;;;5048389;28;43313;-71
2022/05/13 03:22:17;;;;;;;1.37;1.37;;;22.20;68.60;;;;;;5047781;28;43945;-70
2022/05/13 03:24:45;;;;;;;1.37;1.37;;;22.10;67.60;;;;;;5047611;28;44144;-71
2022/05/13 03:27:13;;;;;;;1.17;1.17;;;22.00;67.00;;;;;;5048095;28;43349;-71
2022/05/13 03:29:41;;;;;;;1.10;1.00;;;22.00;67.20;;;;;;5029931;28;43699;-71
2022/05/13 03:32:10;;;;;;;1.10;1.10;;;21.90;67.30;;;;;;5047599;28;45020;-71
2022/05/13 03:34:38;;;;;;;1.27;1.27;;;21.80;67.40;;;;;;5047192;28;43851;-70
2022/05/13 03:37:07;;;;;;;1.10;1.10;;;21.80;69.50;;;;;;5047833;28;43866;-72
2022/05/13 03:39:35;;;;;;;1.30;1.30;;;21.80;69.60;;;;;;5048132;28;44004;-71
2022/05/13 03:42:04;;;;;;;1.30;1.30;;;21.90;69.60;;;;;;5047406;28;43800;-71
2022/05/13 03:44:32;;;;;;;1.30;1.30;;;22.00;69.00;;;;;;5047496;28;43445;-71
2022/05/13 03:47:00;;;;;;;1.20;1.20;;;22.00;69.00;;;;;;5047702;28;43938;-70
2022/05/13 03:49:28;;;;;;;1.40;1.30;;;22.00;68.20;;;;;;5029771;28;43987;-70
2022/05/13 03:51:56;;;;;;;1.20;1.20;;;21.90;67.60;;;;;;5046797;28;44146;-71
2022/05/13 03:54:25;;;;;;;1.20;1.20;;;21.90;67.40;;;;;;5047978;28;44047;-71
2022/05/13 03:56:53;;;;;;;1.10;1.10;;;21.80;67.60;;;;;;5047969;28;43961;-71
2022/05/13 03:59:21;;;;;;;1.20;1.20;;;21.70;67.70;;;;;;5047839;28;44163;-71
2022/05/13 04:01:49;;;;;;;1.30;1.30;;;21.70;67.80;;;;;;5047454;28;44042;-71
2022/05/13 04:04:21;;;;;;;1.33;1.33;;;21.70;68.00;;;;;;5047618;28;43941;-71
2022/05/13 04:09:35;;;;;;;1.40;1.30;;;21.70;69.90;;;;;;5048036;28;43962;-70
2022/05/13 04:17:37;;;;;;;1.47;1.47;;;22.20;68.90;;;;;;5047446;28;43420;-71
2022/05/13 04:20:06;;;;;;;1.50;1.50;;;22.20;68.10;;;;;;5029647;28;43990;-71
2022/05/13 04:22:35;;;;;;;1.40;1.30;;;22.20;68.40;;;;;;5047091;28;43742;-71
2022/05/13 04:25:04;;;;;;;1.93;1.50;;;22.10;67.70;;;;;;5046823;28;43323;-71
2022/05/13 04:27:33;;;;;;;1.50;1.50;;;22.10;67.20;;;;;;5047189;28;44258;-70
2022/05/13 04:30:00;;;;;;;1.33;1.10;;;22.00;67.00;;;;;;5047899;28;44272;-72
2022/05/13 04:32:28;;;;;;;2.63;1.70;;;21.90;67.20;;;;;;5047060;28;43941;-71
2022/05/13 04:34:56;;;;;;;1.47;1.43;;;21.80;67.30;;;;;;5046876;28;43946;-71
2022/05/13 04:37:25;;;;;;;1.30;1.23;;;21.80;69.60;;;;;;5047158;28;44024;-71
2022/05/13 04:39:53;;;;;;;1.43;1.43;;;21.80;69.80;;;;;;5047784;28;43535;-71
2022/05/13 04:45:09;;;;;;;1.37;1.37;;;22.00;68.70;;;;;;5047097;28;43874;-71
2022/05/13 04:50:22;;;;;;;1.53;1.53;;;22.00;67.70;;;;;;5047538;28;43377;-71
2022/05/13 04:52:50;;;;;;;1.40;1.40;;;21.90;67.20;;;;;;5040378;28;46131;-71
2022/05/13 04:55:18;;;;;;;1.67;1.60;;;21.80;67.20;;;;;;5046833;28;44560;-70
2022/05/13 04:57:47;;;;;;;1.60;1.60;;;21.80;67.20;;;;;;5046920;28;43968;-72
2022/05/13 05:00:16;;;;;;;1.50;1.50;;;21.70;67.30;;;;;;5047437;28;44008;-71
2022/05/13 05:02:44;;;;;;;2.00;1.90;;;21.70;67.40;;;;;;5046870;28;43904;-71
2022/05/13 05:05:12;;;;;;;1.90;1.80;;;21.60;68.00;;;;;;5046675;28;44151;-72
2022/05/13 05:07:40;;;;;;;1.97;1.50;;;21.60;68.80;;;;;;5046622;28;43953;-70
2022/05/13 05:10:10;;;;;;;1.90;1.80;;;21.80;69.30;;;;;;5029320;28;43894;-72
2022/05/13 05:12:39;;;;;;;1.50;1.50;;;22.00;68.90;;;;;;5044755;28;46449;-70
2022/05/13 05:15:09;;;;;;;1.60;1.60;;;22.10;68.50;;;;;;5046429;28;43873;-70
2022/05/13 05:17:37;;;;;;;2.00;1.50;;;22.20;67.90;;;;;;5046704;28;43428;-71
2022/05/13 05:20:06;;;;;;;1.60;1.50;;;22.20;67.80;;;;;;5047128;28;44073;-70
2022/05/13 05:22:34;;;;;;;1.63;1.60;;;22.10;67.30;;;;;;5028341;28;45746;-71
2022/05/13 05:25:03;;;;;;;1.57;1.57;;;22.00;66.70;;;;;;5046617;28;43981;-71
2022/05/13 05:27:35;;;;;;;1.50;1.50;;;22.00;66.60;;;;;;5046462;28;44027;-71
2022/05/13 05:30:04;;;;;;;1.60;1.60;;;21.90;66.70;;;;;;5046890;28;44157;-71
2022/05/13 05:32:33;;;;;;;1.70;1.60;;;21.80;66.80;;;;;;5046386;28;43849;-70
2022/05/13 05:35:01;;;;;;;1.57;1.57;;;21.70;68.10;;;;;;5046119;28;44136;-71
2022/05/13 05:37:29;;;;;;;1.50;1.50;;;21.80;69.30;;;;;;5050212;28;44031;-70
2022/05/13 05:39:57;;;;;;;1.47;1.47;;;21.90;69.50;;;;;;5050226;28;44273;-71
2022/05/13 05:42:25;;;;;;;1.40;1.40;;;22.00;68.40;;;;;;5049644;28;44116;-71
2022/05/13 05:44:53;;;;;;;1.47;1.47;;;22.00;68.60;;;;;;5031540;28;44965;-71
2022/05/13 05:47:21;;;;;;;1.40;1.40;;;22.00;67.80;;;;;;5049805;28;43966;-70
2022/05/13 05:49:51;;;;;;;1.40;1.40;;;21.90;66.60;;;;;;5050279;28;43960;-71
2022/05/13 05:52:19;;;;;;;1.60;1.60;;;21.90;66.70;;;;;;5049693;28;43948;-72
2022/05/13 05:57:32;;;;;;;1.63;1.57;;;21.70;66.80;;;;;;5041363;28;44041;-72
2022/05/13 06:00:01;;;;;;;1.47;1.47;;;21.70;66.90;;;;;;5041959;28;43527;-71
2022/05/13 06:02:31;;;;;;;1.60;1.60;;;21.70;67.10;;;;;;5040029;28;43742;-72
2022/05/13 06:05:00;;;;;;;1.50;1.50;;;21.60;67.80;;;;;;5049448;28;43365;-70
2022/05/13 06:07:28;;;;;;;1.53;1.53;;;21.60;69.70;;;;;;5049760;28;43906;-69
2022/05/13 06:09:56;;;;;;;1.50;1.50;;;21.80;69.50;;;;;;5049758;28;43540;-71
2022/05/13 06:12:24;;;;;;;1.53;1.53;;;22.00;69.40;;;;;;5049497;28;43925;-71
2022/05/13 06:14:52;;;;;;;1.50;1.50;;;22.10;68.50;;;;;;5049279;28;44238;-71
2022/05/13 06:17:20;;;;;;;1.47;1.47;;;22.20;67.90;;;;;;5049353;28;43379;-70
2022/05/13 06:19:48;;;;;;;1.33;1.33;;;22.10;67.20;;;;;;5049630;28;44020;-70
2022/05/13 06:22:17;;;;;;;1.40;1.30;;;22.10;67.10;;;;;;5049166;28;43982;-71
2022/05/13 06:24:45;;;;;;;1.30;1.30;;;22.00;66.50;;;;;;5048804;28;44033;-71
2022/05/13 06:27:14;;;;;;;1.30;1.30;;;21.90;66.40;;;;;;5049525;28;43893;-71
2022/05/13 06:29:42;;;;;;;1.40;1.40;;;21.80;66.60;;;;;;5049471;28;43957;-71
2022/05/13 06:32:10;;;;;;;1.60;1.50;;;21.80;66.80;;;;;;5049024;28;43964;-71
2022/05/13 06:34:38;;;;;;;1.40;1.40;;;21.70;67.00;;;;;;5048518;28;43946;-71
2022/05/13 06:37:06;;;;;;;1.40;1.40;;;21.70;69.00;;;;;;5049153;28;43461;-72
2022/05/13 06:39:36;;;;;;;1.30;1.30;;;21.80;69.20;;;;;;5049462;28;43359;-71
2022/05/13 06:42:05;;;;;;;1.37;1.37;;;21.90;69.00;;;;;;5030350;28;45809;-71
2022/05/13 06:44:42;;;;;;;1.33;1.33;;;22.00;68.30;;;;;;5041202;28;45808;-71
2022/05/13 06:47:10;;;;;;;1.57;1.57;;;22.10;67.60;;;;;;5047735;28;43424;-71
2022/05/13 06:49:38;;;;;;;1.60;1.60;;;22.10;67.90;;;;;;5049466;28;43398;-72
2022/05/13 06:52:08;;;;;;;1.40;1.40;;;22.00;66.80;;;;;;5030336;28;44552;-71
2022/05/13 06:54:58;;;;;;;1.60;1.60;;;21.90;66.50;;;;;;5048847;28;43903;-71
2022/05/13 06:57:24;;;;;;;1.40;1.40;;;21.80;66.60;;;;;;5048952;28;43949;-71
2022/05/13 06:59:52;;;;;;;1.30;1.30;;;21.70;66.70;;;;;;5049054;28;43919;-71
2022/05/13 07:02:22;;;;;;;1.50;1.50;;;21.70;66.80;;;;;;5046302;28;47345;-71
2022/05/13 07:04:50;;;;;;;1.37;1.33;;;21.60;67.80;;;;;;5048478;28;43833;-70
2022/05/13 07:07:18;;;;;;;1.50;1.50;;;21.70;69.40;;;;;;5048597;28;43814;-72
2022/05/13 07:09:46;;;;;;;1.40;1.40;;;21.80;69.40;;;;;;5048904;28;43924;-72
2022/05/13 07:12:16;;;;;;;1.30;1.30;;;21.90;68.70;;;;;;5048515;28;43995;-70
2022/05/13 07:14:44;;;;;;;1.30;1.30;;;21.90;68.20;;;;;;5030201;28;44325;-71
2022/05/13 07:17:11;;;;;;;1.37;1.37;;;21.90;67.40;;;;;;5048412;28;44033;-70
2022/05/13 07:19:39;;;;;;;1.40;1.40;;;21.80;66.70;;;;;;5030740;28;43563;-70
2022/05/13 07:22:08;;;;;;;1.30;1.30;;;21.70;66.70;;;;;;5048520;28;43937;-71
2022/05/13 07:24:36;;;;;;;1.40;1.40;;;21.60;66.80;;;;;;5046998;28;43456;-72
2022/05/13 07:27:04;;;;;;;1.40;1.40;;;21.60;66.90;;;;;;5048090;28;43523;-72
2022/05/13 07:29:33;;;;;;;1.40;1.40;;;21.60;67.10;;;;;;5048562;28;43779;-71
2022/05/13 07:32:01;;;;;;;1.47;1.47;;;21.50;67.20;;;;;;5041317;28;44750;-71
2022/05/13 07:34:29;;;;;;;1.20;1.20;;;21.50;67.30;;;;;;5041353;28;43888;-71
2022/05/13 07:36:57;;;;;;;1.50;1.50;;;21.50;69.10;;;;;;5041709;28;43787;-72
2022/05/13 07:42:11;;;;;;;1.33;1.30;;;21.80;69.10;;;;;;5043412;28;43675;-71
2022/05/13 07:44:40;;;;;;;1.20;1.20;;;22.00;69.00;;;;;;5046545;28;44330;-70
2022/05/13 07:47:09;;;;;;;1.10;1.10;;;22.10;67.70;;;;;;5047787;28;43991;-70
2022/05/13 07:49:38;;;;;;;1.37;1.37;;;22.10;67.30;;;;;;5048364;28;44028;-71
2022/05/13 07:52:06;;;;;;;1.30;1.30;;;22.10;67.50;;;;;;5047838;28;45110;-71
2022/05/13 07:54:34;;;;;;;1.20;1.20;;;22.00;66.40;;;;;;5047808;28;44164;-70
2022/05/13 07:57:02;;;;;;;1.20;1.20;;;21.90;66.20;;;;;;5047588;28;44063;-71
2022/05/13 07:59:31;;;;;;;1.27;1.27;;;21.80;66.40;;;;;;5029765;28;44035;-71
2022/05/13 08:02:00;;;;;;;1.13;1.13;;;21.70;66.50;;;;;;5029364;28;45762;-71
2022/05/13 08:04:28;;;;;;;1.20;1.20;;;21.70;66.90;;;;;;5047735;28;43960;-72
2022/05/13 08:06:56;;;;;;;1.27;1.27;;;21.60;68.90;;;;;;5029588;28;43416;-71
2022/05/13 08:09:24;;;;;;;1.50;1.50;;;21.70;69.00;;;;;;5048104;28;44268;-71
2022/05/13 08:11:52;;;;;;;1.37;1.30;;;21.80;68.50;;;;;;5029363;28;45679;-71
2022/05/13 08:14:20;;;;;;;1.30;1.30;;;21.90;68.10;;;;;;5047639;28;43854;-70
2022/05/13 08:16:47;;;;;;;1.30;1.30;;;21.90;67.30;;;;;;5047522;28;43428;-70
2022/05/13 08:19:17;;;;;;;1.13;1.13;;;21.80;66.60;;;;;;5047817;28;43975;-71
2022/05/13 08:21:45;;;;;;;1.30;1.30;;;21.70;66.50;;;;;;5047372;28;43834;-72
2022/05/13 08:24:13;;;;;;;1.17;1.17;;;21.70;66.70;;;;;;5047320;28;43927;-70
2022/05/13 08:26:41;;;;;;;1.20;1.20;;;21.60;66.90;;;;;;5047393;28;43858;-71
2022/05/13 08:29:09;;;;;;;1.20;1.20;;;21.60;67.00;;;;;;5047709;28;43917;-71
2022/05/13 08:31:37;;;;;;;1.10;1.10;;;21.50;67.10;;;;;;5046875;28;43834;-72
2022/05/13 08:34:05;;;;;;;1.30;1.30;;;21.50;67.20;;;;;;5047346;28;44050;-71
2022/05/13 08:36:34;;;;;;;1.60;1.60;;;21.50;69.10;;;;;;5047153;28;44028;-71
2022/05/13 08:39:02;;;;;;;1.40;1.40;;;21.60;69.30;;;;;;5047612;28;43457;-71
2022/05/13 08:41:44;;;;;;;1.30;1.30;;;21.70;68.70;;;;;;5046907;28;43944;-71
2022/05/13 08:44:12;;;;;;;1.33;1.33;;;21.80;68.40;;;;;;5047201;28;43663;-71
2022/05/13 08:46:42;;;;;;;1.10;1.10;;;21.80;67.30;;;;;;5046640;28;44012;-70
2022/05/13 08:49:33;;;;;;;1.17;1.17;;;21.70;66.70;;;;;;5047639;28;44044;-70
2022/05/13 08:54:54;;;;;;;1.30;1.30;;;21.60;67.00;;;;;;5046185;28;43779;-71
2022/05/13 08:57:22;;;;;;;1.30;1.30;;;21.50;67.00;;;;;;5046712;28;44328;-71
2022/05/13 08:59:53;;;;;;;1.20;1.20;;;21.50;67.20;;;;;;5047310;28;44343;-72
2022/05/13 09:02:22;;;;;;;1.13;1.13;;;21.50;67.30;;;;;;5046878;28;44036;-70
2022/05/13 09:04:52;;;;;;;1.30;1.30;;;21.50;68.70;;;;;;5046695;28;43417;-71
2022/05/13 09:07:22;;;;;;;1.30;1.30;;;21.50;69.10;;;;;;5040471;28;44016;-71
2022/05/13 09:09:51;;;;;;;0.93;0.93;;;21.70;69.00;;;;;;5038611;28;44007;-71
2022/05/13 09:12:23;;;;;;;1.50;1.40;;;21.90;68.70;;;;;;5022110;28;45978;-72
2022/05/13 09:14:55;;;;;;;0.97;0.97;;;22.00;68.40;;;;;;5046580;28;43916;-72
2022/05/13 09:17:34;;;;;;;1.27;1.27;;;22.10;67.70;;;;;;5046592;28;44082;-70
2022/05/13 09:20:06;;;;;;;1.07;1.07;;;22.10;67.20;;;;;;5047106;28;43996;-71
2022/05/13 09:22:37;;;;;;;1.40;1.40;;;22.10;66.40;;;;;;5046562;28;44074;-71
2022/05/13 09:25:05;;;;;;;1.30;1.30;;;21.90;66.10;;;;;;5046582;28;43936;-70
2022/05/13 09:27:51;;;;;;;1.20;1.20;;;21.80;66.20;;;;;;5046470;28;44006;-71
2022/05/13 09:30:20;;;;;;;1.30;1.30;;;21.70;66.40;;;;;;5047028;28;43997;-70
2022/05/13 09:32:48;;;;;;;1.10;1.10;;;21.60;66.90;;;;;;5039765;28;43885;-71
2022/05/13 09:35:24;;;;;;;1.10;1.10;;;21.60;68.80;;;;;;5046534;28;43974;-71
2022/05/13 09:37:55;;;;;;;1.43;1.40;;;21.70;69.40;;;;;;5046262;28;43360;-71
2022/05/13 09:40:24;;;;;;;1.10;1.10;;;21.90;68.40;;;;;;5029052;28;43392;-72
2022/05/13 09:42:53;;;;;;;1.00;1.00;;;21.90;68.10;;;;;;5045777;28;44140;-71
2022/05/13 09:45:25;;;;;;;1.20;1.20;;;21.90;66.90;;;;;;5046369;28;44239;-71
2022/05/13 09:48:02;;;;;;;1.10;1.10;;;21.80;66.50;;;;;;5046360;28;44097;-71
2022/05/13 09:50:37;;;;;;;1.10;1.10;;;21.70;66.60;;;;;;5028655;28;43859;-71
2022/05/13 09:53:08;;;;;;;0.93;0.93;;;21.60;66.70;;;;;;5046111;28;43921;-71
2022/05/13 09:55:37;;;;;;;0.90;0.90;;;21.60;66.90;;;;;;5046372;28;43969;-71
2022/05/13 09:58:09;;;;;;;1.20;1.20;;;21.50;67.00;;;;;;5046258;28;44003;-71
2022/05/13 10:00:38;;;;;;;1.60;1.50;;;21.50;67.10;;;;;;5046743;28;43347;-71
2022/05/13 10:03:11;;;;;;;1.10;1.10;;;21.50;67.90;;;;;;5027747;28;47030;-71
2022/05/13 10:05:39;;;;;;;1.20;1.20;;;21.50;69.00;;;;;;5046030;28;43909;-72
2022/05/13 10:08:09;;;;;;;0.90;0.90;;;21.70;69.10;;;;;;5046125;28;44052;-72
2022/05/13 10:16:12;;;;;;;1.00;1.00;;;21.80;66.60;;;;;;5045983;28;44076;-72
2022/05/13 10:18:46;;;;;;;1.10;1.10;;;21.70;66.50;;;;;;5045743;28;43976;-71
2022/05/13 10:21:15;;;;;;;1.20;1.20;;;21.60;66.60;;;;;;5046719;28;43283;-71
2022/05/13 10:23:47;;;;;;;1.20;1.20;;;21.60;66.80;;;;;;5049380;28;43961;-71
2022/05/13 10:26:16;;;;;;;1.20;1.20;;;21.60;66.90;;;;;;5042829;28;43912;-71
2022/05/13 10:28:48;;;;;;;1.03;1.03;;;21.50;66.90;;;;;;5042950;28;44017;-71
2022/05/13 10:31:17;;;;;;;0.90;0.90;;;21.50;67.00;;;;;;5049646;28;44043;-71
2022/05/13 10:33:48;;;;;;;1.20;1.20;;;21.50;68.40;;;;;;5048912;28;43907;-71
2022/05/13 10:36:18;;;;;;;1.20;1.20;;;21.60;68.80;;;;;;5048849;28;43909;-71
2022/05/13 10:38:49;;;;;;;1.10;1.10;;;21.70;68.70;;;;;;5049093;28;43933;-71
2022/05/13 10:41:29;;;;;;;1.10;1.10;;;21.90;68.50;;;;;;5049115;28;43824;-72
2022/05/13 10:44:00;;;;;;;1.00;1.00;;;22.10;67.90;;;;;;5049237;28;44193;-71
2022/05/13 10:46:31;;;;;;;1.10;1.10;;;22.10;67.30;;;;;;5049107;28;44115;-71
2022/05/13 10:49:19;;;;;;;1.10;1.10;;;22.10;67.10;;;;;;5042926;28;43922;-71
2022/05/13 10:51:52;;;;;;;1.03;1.03;;;22.10;66.20;;;;;;5049341;28;43368;-70
2022/05/13 10:54:34;;;;;;;1.03;1.03;;;22.00;65.90;;;;;;5048702;28;44424;-71
2022/05/13 10:57:08;;;;;;;0.97;0.97;;;21.90;66.10;;;;;;5040325;28;44764;-71
2022/05/13 10:59:44;;;;;;;1.07;1.07;;;21.70;66.20;;;;;;5048893;28;43909;-71
2022/05/13 11:02:25;;;;;;;1.03;1.03;;;21.70;67.10;;;;;;5049002;28;43862;-72
2022/05/13 11:04:57;;;;;;;0.90;0.90;;;21.70;68.80;;;;;;5042241;28;44802;-72
2022/05/13 11:07:27;;;;;;;1.00;1.00;;;21.80;68.70;;;;;;5048668;28;43372;-71
2022/05/13 11:09:59;;;;;;;1.00;1.00;;;21.90;68.50;;;;;;5047562;28;44044;-71
2022/05/13 11:12:33;;;;;;;0.90;0.90;;;21.90;67.30;;;;;;5049129;28;43420;-71
2022/05/13 11:15:12;;;;;;;0.87;0.87;;;21.90;66.70;;;;;;5030031;28;44152;-71
2022/05/13 11:17:44;;;;;;;1.00;1.00;;;21.80;66.40;;;;;;5048342;28;44080;-71
2022/05/13 11:20:18;;;;;;;1.20;1.20;;;21.80;66.60;;;;;;5048629;28;43935;-72
2022/05/13 11:22:50;;;;;;;0.87;0.87;;;21.70;66.70;;;;;;5048788;28;43857;-70
2022/05/13 11:28:36;;;;;;;0.93;0.93;;;21.60;66.80;;;;;;5044100;28;44005;-71
2022/05/13 11:31:09;;;;;;;1.07;1.07;;;21.50;67.20;;;;;;5046694;28;43945;-71
2022/05/13 11:33:41;;;;;;;0.90;0.90;;;21.60;69.00;;;;;;5041449;28;43277;-71
2022/05/13 11:36:19;;;;;;;1.10;1.10;;;21.70;68.90;;;;;;5047942;28;43902;-70
2022/05/13 11:39:05;;;;;;;0.90;0.90;;;21.90;68.60;;;;;;5048034;28;43438;-71
2022/05/13 11:41:39;;;;;;;1.10;1.10;;;22.10;68.10;;;;;;5048112;28;43499;-72
2022/05/13 11:44:29;;;;;;;0.87;0.87;;;22.10;67.70;;;;;;5048655;28;44085;-71
2022/05/13 11:46:58;;;;;;;1.00;1.00;;;22.10;66.90;;;;;;5048113;28;44028;-70
2022/05/13 11:49:27;;;;;;;1.00;1.00;;;22.00;66.20;;;;;;5048099;28;43810;-71
2022/05/13 11:51:56;;;;;;;1.00;1.00;;;21.90;66.00;;;;;;5047872;28;43468;-71
2022/05/13 11:54:25;;;;;;;2.63;1.20;;;21.80;66.10;;;;;;5048649;28;43956;-71
2022/05/13 11:57:23;;;;;;;0.90;0.90;;;21.80;66.10;;;;;;5029738;28;45547;-71
2022/05/13 11:59:52;;;;;;;1.10;1.10;;;21.70;66.20;;;;;;5047647;28;44004;-71
2022/05/13 12:02:34;;;;;;;1.10;1.10;;;21.60;67.70;;;;;;5047959;28;43873;-72
2022/05/13 12:05:06;;;;;;;1.57;1.00;;;21.70;69.00;;;;;;5029703;28;43970;-71
2022/05/13 12:07:38;;;;;;;0.97;0.93;;;21.80;69.50;;;;;;5029127;28;45388;-71
2022/05/13 12:10:06;;;;;;;0.87;0.87;;;21.90;68.20;;;;;;5047640;28;43750;-71
2022/05/13 12:12:49;;;;;;;1.10;1.10;;;21.90;67.00;;;;;;5047766;28;43983;-71
2022/05/13 12:15:26;;;;;;;0.90;0.90;;;21.80;66.30;;;;;;5048132;28;43853;-71
2022/05/13 12:17:58;;;;;;;1.00;1.00;;;21.80;66.30;;;;;;5047415;28;43982;-71
2022/05/13 12:20:35;;;;;;;1.10;1.10;;;21.70;66.50;;;;;;5047560;28;43357;-71
2022/05/13 12:23:08;;;;;;;0.90;0.90;;;21.60;66.60;;;;;;5041969;28;43806;-70
2022/05/13 12:25:56;;;;;;;1.00;1.00;;;21.60;66.80;;;;;;5029484;28;44162;-71
2022/05/13 12:28:55;;;;;;;0.90;0.90;;;21.60;66.70;;;;;;5028994;28;45736;-71
2022/05/13 12:31:35;;;;;;;1.10;1.10;;;21.50;66.90;;;;;;5040688;28;44237;-71
2022/05/13 12:39:46;;;;;;;1.00;1.00;;;21.80;68.90;;;;;;5043016;28;43980;-71
2022/05/13 12:42:37;;;;;;;0.93;0.93;;;22.00;68.50;;;;;;5044987;28;44806;-70
2022/05/13 12:45:09;;;;;;;1.00;1.00;;;22.10;67.70;;;;;;5038493;28;43964;-71
2022/05/13 12:47:57;;;;;;;0.97;0.97;;;22.00;66.50;;;;;;5034301;28;43812;-70
2022/05/13 12:50:29;;;;;;;0.90;0.90;;;21.90;65.80;;;;;;5046883;28;45119;-72
2022/05/13 12:52:57;;;;;;;0.97;0.97;;;21.90;66.00;;;;;;5033763;28;43366;-71
2022/05/13 12:55:45;;;;;;;0.80;0.80;;;21.80;66.10;;;;;;5040841;28;43497;-70
2022/05/13 12:58:13;;;;;;;1.00;1.00;;;21.70;66.20;;;;;;5034028;28;43921;-72
2022/05/13 13:00:43;;;;;;;1.00;1.00;;;21.60;66.20;;;;;;5033191;28;43894;-71
2022/05/13 13:03:12;;;;;;;0.90;0.90;;;21.60;68.20;;;;;;5033565;28;43981;-71
2022/05/13 13:05:42;;;;;;;1.00;1.00;;;21.70;69.10;;;;;;5002756;28;43444;-71
2022/05/13 13:08:12;;;;;;;1.03;1.03;;;21.80;68.80;;;;;;5021184;28;44020;-71
2022/05/13 13:10:48;;;;;;;0.90;0.90;;;21.80;68.00;;;;;;5021742;28;43763;-71
2022/05/13 13:13:20;;;;;;;0.73;0.73;;;21.80;66.70;;;;;;5046211;28;44015;-71
2022/05/13 13:15:52;;;;;;;0.90;0.90;;;21.80;66.20;;;;;;5046381;28;43869;-70
2022/05/13 13:18:29;;;;;;;1.10;1.10;;;21.70;66.30;;;;;;5046407;28;43905;-71
2022/05/13 13:20:58;;;;;;;0.80;0.80;;;21.70;67.20;;;;;;5046368;28;43993;-71
2022/05/13 13:23:27;;;;;;;0.80;0.80;;;21.60;66.60;;;;;;5042424;28;43954;-70
2022/05/13 13:25:57;;;;;;;0.90;0.90;;;21.60;66.80;;;;;;5027156;28;43351;-71
2022/05/13 13:28:26;;;;;;;0.80;0.80;;;21.50;66.90;;;;;;5034225;28;44000;-71
2022/05/13 13:30:57;;;;;;;0.73;0.73;;;21.50;66.90;;;;;;5008982;28;45640;-72
2022/05/13 13:33:26;;;;;;;0.90;0.90;;;21.50;68.90;;;;;;5044781;28;44038;-72
2022/05/13 13:35:54;;;;;;;1.00;1.00;;;21.60;69.10;;;;;;5034219;28;43810;-71
2022/05/13 13:38:22;;;;;;;1.10;1.10;;;21.80;69.30;;;;;;5027332;28;44060;-72
2022/05/13 13:40:50;;;;;;;0.80;0.80;;;21.90;68.60;;;;;;5008597;28;45684;-71
2022/05/13 13:43:21;;;;;;;0.90;0.90;;;22.00;68.20;;;;;;5045507;28;43989;-71
2022/05/13 13:45:51;;;;;;;0.93;0.93;;;22.00;67.60;;;;;;5046227;28;43927;-71
2022/05/13 13:48:29;;;;;;;0.90;0.90;;;22.00;66.30;;;;;;5046266;28;43977;-71